sensor_id;sensor_type;location;lat;lon;timestamp;P1;durP1;ratioP1;P2;durP2;ratioP2
1765;SDS011;880;52.452;8.656;2024-03-17T00:00:37;13.07;;;9.95;;
1765;SDS011;880;52.452;8.656;2024-03-17T00:03:05;12.23;;;9.65;;
1765;SDS011;880;52.452;8.656;2024-03-17T00:05:36;10.07;;;8.95;;
1765;SDS011;880;52.452;8.656;2024-03-17T00:08:03;9.93;;;7.93;;
1765;SDS011;880;52.452;8.656;2024-03-17T00:10:30;8.18;;;7.00;;
1765;SDS011;880;52.452;8.656;2024-03-17T00:12:57;7.53;;;6.82;;
1765;SDS011;880;52.452;8.656;2024-03-17T00:15:23;8.68;;;7.85;;
1765;SDS011;880;52.452;8.656;2024-03-17T00:17:49;7.43;;;6.82;;
1765;SDS011;880;52.452;8.656;2024-03-17T00:20:15;8.10;;;7.35;;
1765;SDS011;880;52.452;8.656;2024-03-17T00:22:46;6.70;;;6.20;;
1765;SDS011;880;52.452;8.656;2024-03-17T00:25:18;11.85;;;10.52;;
1765;SDS011;880;52.452;8.656;2024-03-17T00:27:44;7.97;;;7.20;;
1765;SDS011;880;52.452;8.656;2024-03-17T00:30:13;6.78;;;6.20;;
1765;SDS011;880;52.452;8.656;2024-03-17T00:32:39;6.85;;;6.25;;
1765;SDS011;880;52.452;8.656;2024-03-17T00:35:06;7.22;;;6.72;;
1765;SDS011;880;52.452;8.656;2024-03-17T00:37:34;7.40;;;6.38;;
1765;SDS011;880;52.452;8.656;2024-03-17T00:40:00;7.78;;;5.43;;
1765;SDS011;880;52.452;8.656;2024-03-17T00:42:27;5.22;;;4.82;;
1765;SDS011;880;52.452;8.656;2024-03-17T00:44:53;6.10;;;5.68;;
1765;SDS011;880;52.452;8.656;2024-03-17T00:47:20;5.30;;;4.80;;
1765;SDS011;880;52.452;8.656;2024-03-17T00:49:46;4.93;;;4.45;;
1765;SDS011;880;52.452;8.656;2024-03-17T00:52:15;5.47;;;4.97;;
1765;SDS011;880;52.452;8.656;2024-03-17T00:54:42;5.65;;;5.20;;
1765;SDS011;880;52.452;8.656;2024-03-17T00:57:12;5.32;;;4.93;;
1765;SDS011;880;52.452;8.656;2024-03-17T00:59:38;5.53;;;4.43;;
1765;SDS011;880;52.452;8.656;2024-03-17T01:02:04;5.13;;;4.68;;
1765;SDS011;880;52.452;8.656;2024-03-17T01:04:30;6.57;;;4.43;;
1765;SDS011;880;52.452;8.656;2024-03-17T01:06:59;5.60;;;4.78;;
1765;SDS011;880;52.452;8.656;2024-03-17T01:09:26;4.90;;;4.32;;
1765;SDS011;880;52.452;8.656;2024-03-17T01:11:52;5.65;;;5.25;;
1765;SDS011;880;52.452;8.656;2024-03-17T01:14:18;5.18;;;4.78;;
1765;SDS011;880;52.452;8.656;2024-03-17T01:16:44;5.65;;;5.15;;
1765;SDS011;880;52.452;8.656;2024-03-17T01:19:10;5.75;;;5.03;;
1765;SDS011;880;52.452;8.656;2024-03-17T01:21:36;5.32;;;4.70;;
1765;SDS011;880;52.452;8.656;2024-03-17T01:24:02;5.28;;;4.82;;
1765;SDS011;880;52.452;8.656;2024-03-17T01:26:28;127.93;;;46.33;;
1765;SDS011;880;52.452;8.656;2024-03-17T01:28:54;54.15;;;25.05;;
1765;SDS011;880;52.452;8.656;2024-03-17T01:31:20;36.08;;;17.75;;
1765;SDS011;880;52.452;8.656;2024-03-17T01:33:46;12.52;;;8.90;;
1765;SDS011;880;52.452;8.656;2024-03-17T01:36:12;7.18;;;6.10;;
1765;SDS011;880;52.452;8.656;2024-03-17T01:38:39;4.75;;;4.20;;
1765;SDS011;880;52.452;8.656;2024-03-17T01:41:05;5.13;;;4.68;;
1765;SDS011;880;52.452;8.656;2024-03-17T01:43:31;5.95;;;4.32;;
1765;SDS011;880;52.452;8.656;2024-03-17T01:45:58;5.57;;;4.97;;
1765;SDS011;880;52.452;8.656;2024-03-17T01:48:24;5.60;;;5.20;;
1765;SDS011;880;52.452;8.656;2024-03-17T01:50:52;6.90;;;4.18;;
1765;SDS011;880;52.452;8.656;2024-03-17T01:53:20;6.80;;;4.50;;
1765;SDS011;880;52.452;8.656;2024-03-17T01:55:50;4.80;;;4.43;;
1765;SDS011;880;52.452;8.656;2024-03-17T01:58:20;4.88;;;4.50;;
1765;SDS011;880;52.452;8.656;2024-03-17T02:00:46;5.75;;;5.25;;
1765;SDS011;880;52.452;8.656;2024-03-17T02:03:12;4.90;;;4.45;;
1765;SDS011;880;52.452;8.656;2024-03-17T02:05:38;7.97;;;5.00;;
1765;SDS011;880;52.452;8.656;2024-03-17T02:08:05;6.03;;;4.70;;
1765;SDS011;880;52.452;8.656;2024-03-17T02:10:34;5.60;;;5.10;;
1765;SDS011;880;52.452;8.656;2024-03-17T02:13:01;5.30;;;4.88;;
1765;SDS011;880;52.452;8.656;2024-03-17T02:15:29;6.40;;;5.82;;
1765;SDS011;880;52.452;8.656;2024-03-17T02:17:56;6.35;;;5.13;;
1765;SDS011;880;52.452;8.656;2024-03-17T02:20:22;7.05;;;4.90;;
1765;SDS011;880;52.452;8.656;2024-03-17T02:23:11;9.57;;;4.45;;
1765;SDS011;880;52.452;8.656;2024-03-17T02:25:37;6.10;;;5.20;;
1765;SDS011;880;52.452;8.656;2024-03-17T02:28:03;5.43;;;5.03;;
1765;SDS011;880;52.452;8.656;2024-03-17T02:30:32;5.05;;;4.65;;
1765;SDS011;880;52.452;8.656;2024-03-17T02:32:58;4.47;;;4.07;;
1765;SDS011;880;52.452;8.656;2024-03-17T02:35:24;8.50;;;4.30;;
1765;SDS011;880;52.452;8.656;2024-03-17T02:37:51;7.82;;;5.00;;
1765;SDS011;880;52.452;8.656;2024-03-17T02:40:17;4.90;;;4.55;;
1765;SDS011;880;52.452;8.656;2024-03-17T02:42:44;5.28;;;4.72;;
1765;SDS011;880;52.452;8.656;2024-03-17T02:45:14;5.22;;;4.78;;
1765;SDS011;880;52.452;8.656;2024-03-17T02:47:40;5.57;;;5.00;;
1765;SDS011;880;52.452;8.656;2024-03-17T02:50:07;5.53;;;4.95;;
1765;SDS011;880;52.452;8.656;2024-03-17T02:52:34;4.63;;;4.22;;
1765;SDS011;880;52.452;8.656;2024-03-17T02:55:00;5.70;;;4.10;;
1765;SDS011;880;52.452;8.656;2024-03-17T02:57:27;5.00;;;4.22;;
1765;SDS011;880;52.452;8.656;2024-03-17T02:59:58;5.32;;;4.68;;
1765;SDS011;880;52.452;8.656;2024-03-17T03:02:24;6.22;;;4.30;;
1765;SDS011;880;52.452;8.656;2024-03-17T03:04:50;9.07;;;5.13;;
1765;SDS011;880;52.452;8.656;2024-03-17T03:07:16;6.38;;;5.20;;
1765;SDS011;880;52.452;8.656;2024-03-17T03:09:43;7.80;;;5.00;;
1765;SDS011;880;52.452;8.656;2024-03-17T03:12:09;8.43;;;5.03;;
1765;SDS011;880;52.452;8.656;2024-03-17T03:14:35;5.47;;;4.90;;
1765;SDS011;880;52.452;8.656;2024-03-17T03:17:02;9.10;;;5.95;;
1765;SDS011;880;52.452;8.656;2024-03-17T03:19:28;8.27;;;5.80;;
1765;SDS011;880;52.452;8.656;2024-03-17T03:21:55;7.60;;;4.95;;
1765;SDS011;880;52.452;8.656;2024-03-17T03:24:21;5.30;;;4.78;;
1765;SDS011;880;52.452;8.656;2024-03-17T03:26:47;7.30;;;4.85;;
1765;SDS011;880;52.452;8.656;2024-03-17T03:29:14;6.53;;;5.68;;
1765;SDS011;880;52.452;8.656;2024-03-17T03:31:40;6.70;;;5.63;;
1765;SDS011;880;52.452;8.656;2024-03-17T03:34:06;9.60;;;5.75;;
1765;SDS011;880;52.452;8.656;2024-03-17T03:36:34;6.85;;;5.63;;
1765;SDS011;880;52.452;8.656;2024-03-17T03:41:30;7.70;;;4.65;;
1765;SDS011;880;52.452;8.656;2024-03-17T03:43:58;11.23;;;5.55;;
1765;SDS011;880;52.452;8.656;2024-03-17T03:46:24;5.38;;;4.88;;
1765;SDS011;880;52.452;8.656;2024-03-17T03:48:51;7.13;;;4.65;;
1765;SDS011;880;52.452;8.656;2024-03-17T03:51:17;5.63;;;4.13;;
1765;SDS011;880;52.452;8.656;2024-03-17T03:53:43;6.97;;;5.00;;
1765;SDS011;880;52.452;8.656;2024-03-17T03:56:10;6.00;;;5.50;;
1765;SDS011;880;52.452;8.656;2024-03-17T03:58:36;6.82;;;4.45;;
1765;SDS011;880;52.452;8.656;2024-03-17T04:01:08;6.18;;;4.25;;
1765;SDS011;880;52.452;8.656;2024-03-17T04:03:46;7.28;;;4.85;;
1765;SDS011;880;52.452;8.656;2024-03-17T04:06:14;9.00;;;5.43;;
1765;SDS011;880;52.452;8.656;2024-03-17T04:08:41;6.00;;;5.43;;
1765;SDS011;880;52.452;8.656;2024-03-17T04:11:08;5.18;;;4.32;;
1765;SDS011;880;52.452;8.656;2024-03-17T04:13:34;5.40;;;4.90;;
1765;SDS011;880;52.452;8.656;2024-03-17T04:16:03;5.13;;;4.72;;
1765;SDS011;880;52.452;8.656;2024-03-17T04:18:31;6.00;;;5.32;;
1765;SDS011;880;52.452;8.656;2024-03-17T04:21:03;10.18;;;4.78;;
1765;SDS011;880;52.452;8.656;2024-03-17T04:23:31;5.22;;;4.25;;
1765;SDS011;880;52.452;8.656;2024-03-17T04:25:57;5.85;;;5.35;;
1765;SDS011;880;52.452;8.656;2024-03-17T04:28:25;5.43;;;4.93;;
1765;SDS011;880;52.452;8.656;2024-03-17T04:30:51;5.63;;;5.10;;
1765;SDS011;880;52.452;8.656;2024-03-17T04:33:17;5.45;;;4.50;;
1765;SDS011;880;52.452;8.656;2024-03-17T04:35:43;8.05;;;4.95;;
1765;SDS011;880;52.452;8.656;2024-03-17T04:38:09;5.40;;;4.57;;
1765;SDS011;880;52.452;8.656;2024-03-17T04:40:42;4.50;;;4.10;;
1765;SDS011;880;52.452;8.656;2024-03-17T04:43:08;4.65;;;4.25;;
1765;SDS011;880;52.452;8.656;2024-03-17T04:45:34;7.82;;;4.75;;
1765;SDS011;880;52.452;8.656;2024-03-17T04:48:00;7.57;;;4.45;;
1765;SDS011;880;52.452;8.656;2024-03-17T04:50:27;4.47;;;4.07;;
1765;SDS011;880;52.452;8.656;2024-03-17T04:55:24;3.75;;;3.45;;
1765;SDS011;880;52.452;8.656;2024-03-17T04:57:51;3.90;;;3.70;;
1765;SDS011;880;52.452;8.656;2024-03-17T05:00:17;5.45;;;4.85;;
1765;SDS011;880;52.452;8.656;2024-03-17T05:02:44;4.28;;;3.97;;
1765;SDS011;880;52.452;8.656;2024-03-17T05:05:10;4.50;;;4.10;;
1765;SDS011;880;52.452;8.656;2024-03-17T05:07:37;4.75;;;4.25;;
1765;SDS011;880;52.452;8.656;2024-03-17T05:10:03;5.00;;;4.30;;
1765;SDS011;880;52.452;8.656;2024-03-17T05:12:31;5.65;;;4.22;;
1765;SDS011;880;52.452;8.656;2024-03-17T05:14:57;4.50;;;4.10;;
1765;SDS011;880;52.452;8.656;2024-03-17T05:17:23;4.72;;;4.32;;
1765;SDS011;880;52.452;8.656;2024-03-17T05:19:49;4.28;;;3.88;;
1765;SDS011;880;52.452;8.656;2024-03-17T05:22:15;4.45;;;4.18;;
1765;SDS011;880;52.452;8.656;2024-03-17T05:24:41;5.70;;;5.20;;
1765;SDS011;880;52.452;8.656;2024-03-17T05:27:07;7.22;;;4.32;;
1765;SDS011;880;52.452;8.656;2024-03-17T05:29:33;4.82;;;4.43;;
1765;SDS011;880;52.452;8.656;2024-03-17T05:32:03;5.40;;;4.88;;
1765;SDS011;880;52.452;8.656;2024-03-17T05:34:30;5.97;;;5.15;;
1765;SDS011;880;52.452;8.656;2024-03-17T05:36:56;4.13;;;3.72;;
1765;SDS011;880;52.452;8.656;2024-03-17T05:39:22;4.38;;;3.97;;
1765;SDS011;880;52.452;8.656;2024-03-17T05:41:48;6.88;;;4.72;;
1765;SDS011;880;52.452;8.656;2024-03-17T05:44:17;4.70;;;4.40;;
1765;SDS011;880;52.452;8.656;2024-03-17T05:46:43;5.40;;;5.00;;
1765;SDS011;880;52.452;8.656;2024-03-17T05:49:09;5.93;;;4.97;;
1765;SDS011;880;52.452;8.656;2024-03-17T05:51:36;4.55;;;4.15;;
1765;SDS011;880;52.452;8.656;2024-03-17T05:54:02;5.95;;;5.35;;
1765;SDS011;880;52.452;8.656;2024-03-17T05:56:28;5.60;;;4.82;;
1765;SDS011;880;52.452;8.656;2024-03-17T05:58:54;5.80;;;5.30;;
1765;SDS011;880;52.452;8.656;2024-03-17T06:01:20;5.20;;;4.72;;
1765;SDS011;880;52.452;8.656;2024-03-17T06:03:47;6.97;;;5.32;;
1765;SDS011;880;52.452;8.656;2024-03-17T06:06:13;7.25;;;5.07;;
1765;SDS011;880;52.452;8.656;2024-03-17T06:08:39;7.65;;;5.60;;
1765;SDS011;880;52.452;8.656;2024-03-17T06:11:06;9.00;;;5.38;;
1765;SDS011;880;52.452;8.656;2024-03-17T06:13:32;9.05;;;7.63;;
1765;SDS011;880;52.452;8.656;2024-03-17T06:15:58;6.63;;;6.13;;
1765;SDS011;880;52.452;8.656;2024-03-17T06:18:27;6.93;;;6.32;;
1765;SDS011;880;52.452;8.656;2024-03-17T06:20:53;8.75;;;5.97;;
1765;SDS011;880;52.452;8.656;2024-03-17T06:23:23;6.72;;;6.07;;
1765;SDS011;880;52.452;8.656;2024-03-17T06:25:49;5.93;;;5.43;;
1765;SDS011;880;52.452;8.656;2024-03-17T06:28:20;6.20;;;5.40;;
1765;SDS011;880;52.452;8.656;2024-03-17T06:30:54;9.25;;;6.53;;
1765;SDS011;880;52.452;8.656;2024-03-17T06:33:26;6.65;;;5.65;;
1765;SDS011;880;52.452;8.656;2024-03-17T06:35:57;6.82;;;6.15;;
1765;SDS011;880;52.452;8.656;2024-03-17T06:38:23;8.02;;;5.82;;
1765;SDS011;880;52.452;8.656;2024-03-17T06:40:50;6.95;;;6.15;;
1765;SDS011;880;52.452;8.656;2024-03-17T06:43:17;7.00;;;6.40;;
1765;SDS011;880;52.452;8.656;2024-03-17T06:45:43;7.00;;;6.45;;
1765;SDS011;880;52.452;8.656;2024-03-17T06:48:19;7.25;;;6.72;;
1765;SDS011;880;52.452;8.656;2024-03-17T06:50:46;10.38;;;7.50;;
1765;SDS011;880;52.452;8.656;2024-03-17T06:53:12;8.43;;;7.63;;
1765;SDS011;880;52.452;8.656;2024-03-17T06:55:38;10.00;;;6.97;;
1765;SDS011;880;52.452;8.656;2024-03-17T06:58:04;8.27;;;7.47;;
1765;SDS011;880;52.452;8.656;2024-03-17T07:00:31;7.85;;;7.15;;
1765;SDS011;880;52.452;8.656;2024-03-17T07:02:57;8.23;;;7.47;;
1765;SDS011;880;52.452;8.656;2024-03-17T07:05:24;12.40;;;7.15;;
1765;SDS011;880;52.452;8.656;2024-03-17T07:07:50;8.13;;;7.35;;
1765;SDS011;880;52.452;8.656;2024-03-17T07:10:17;15.95;;;8.55;;
1765;SDS011;880;52.452;8.656;2024-03-17T07:12:43;9.10;;;8.23;;
1765;SDS011;880;52.452;8.656;2024-03-17T07:15:09;9.18;;;8.32;;
1765;SDS011;880;52.452;8.656;2024-03-17T07:17:36;11.70;;;8.77;;
1765;SDS011;880;52.452;8.656;2024-03-17T07:20:02;9.60;;;8.70;;
1765;SDS011;880;52.452;8.656;2024-03-17T07:22:33;13.25;;;8.65;;
1765;SDS011;880;52.452;8.656;2024-03-17T07:24:59;10.77;;;9.88;;
1765;SDS011;880;52.452;8.656;2024-03-17T07:27:28;10.57;;;9.60;;
1765;SDS011;880;52.452;8.656;2024-03-17T07:29:54;11.15;;;10.10;;
1765;SDS011;880;52.452;8.656;2024-03-17T07:32:20;9.80;;;8.95;;
1765;SDS011;880;52.452;8.656;2024-03-17T07:34:48;11.18;;;10.13;;
1765;SDS011;880;52.452;8.656;2024-03-17T07:37:15;11.60;;;10.55;;
1765;SDS011;880;52.452;8.656;2024-03-17T07:39:42;11.48;;;10.50;;
1765;SDS011;880;52.452;8.656;2024-03-17T07:42:08;11.43;;;10.20;;
1765;SDS011;880;52.452;8.656;2024-03-17T07:44:34;12.02;;;10.98;;
1765;SDS011;880;52.452;8.656;2024-03-17T07:47:00;12.02;;;10.98;;
1765;SDS011;880;52.452;8.656;2024-03-17T07:49:29;12.48;;;11.32;;
1765;SDS011;880;52.452;8.656;2024-03-17T07:51:56;12.85;;;11.20;;
1765;SDS011;880;52.452;8.656;2024-03-17T07:54:23;12.05;;;11.15;;
1765;SDS011;880;52.452;8.656;2024-03-17T07:56:50;12.05;;;11.02;;
1765;SDS011;880;52.452;8.656;2024-03-17T07:59:16;10.98;;;10.18;;
1765;SDS011;880;52.452;8.656;2024-03-17T08:01:43;10.07;;;9.38;;
1765;SDS011;880;52.452;8.656;2024-03-17T08:04:10;11.52;;;10.45;;
1765;SDS011;880;52.452;8.656;2024-03-17T08:06:40;10.30;;;9.40;;
1765;SDS011;880;52.452;8.656;2024-03-17T08:09:07;11.02;;;10.02;;
1765;SDS011;880;52.452;8.656;2024-03-17T08:11:34;10.82;;;9.88;;
1765;SDS011;880;52.452;8.656;2024-03-17T08:14:01;10.68;;;9.82;;
1765;SDS011;880;52.452;8.656;2024-03-17T08:16:27;9.82;;;9.05;;
1765;SDS011;880;52.452;8.656;2024-03-17T08:18:54;10.93;;;9.25;;
1765;SDS011;880;52.452;8.656;2024-03-17T08:21:21;14.38;;;9.95;;
1765;SDS011;880;52.452;8.656;2024-03-17T08:23:47;10.68;;;9.57;;
1765;SDS011;880;52.452;8.656;2024-03-17T08:26:14;9.70;;;9.10;;
1765;SDS011;880;52.452;8.656;2024-03-17T08:28:40;10.02;;;9.23;;
1765;SDS011;880;52.452;8.656;2024-03-17T08:31:06;10.32;;;9.50;;
1765;SDS011;880;52.452;8.656;2024-03-17T08:33:32;11.02;;;10.05;;
1765;SDS011;880;52.452;8.656;2024-03-17T08:35:59;11.55;;;10.77;;
1765;SDS011;880;52.452;8.656;2024-03-17T08:38:31;10.25;;;9.40;;
1765;SDS011;880;52.452;8.656;2024-03-17T08:41:02;10.32;;;9.30;;
1765;SDS011;880;52.452;8.656;2024-03-17T08:43:36;9.90;;;8.95;;
1765;SDS011;880;52.452;8.656;2024-03-17T08:46:06;9.18;;;8.35;;
1765;SDS011;880;52.452;8.656;2024-03-17T08:48:34;8.82;;;8.15;;
1765;SDS011;880;52.452;8.656;2024-03-17T08:51:02;8.77;;;8.15;;
1765;SDS011;880;52.452;8.656;2024-03-17T08:53:30;10.35;;;9.45;;
1765;SDS011;880;52.452;8.656;2024-03-17T08:55:57;9.07;;;8.18;;
1765;SDS011;880;52.452;8.656;2024-03-17T08:58:25;8.77;;;8.18;;
1765;SDS011;880;52.452;8.656;2024-03-17T09:00:51;10.07;;;8.60;;
1765;SDS011;880;52.452;8.656;2024-03-17T09:03:18;8.05;;;7.35;;
1765;SDS011;880;52.452;8.656;2024-03-17T09:05:46;11.48;;;7.68;;
1765;SDS011;880;52.452;8.656;2024-03-17T09:08:17;8.48;;;7.75;;
1765;SDS011;880;52.452;8.656;2024-03-17T09:10:49;8.60;;;7.95;;
1765;SDS011;880;52.452;8.656;2024-03-17T09:13:18;8.18;;;7.45;;
1765;SDS011;880;52.452;8.656;2024-03-17T09:15:58;9.55;;;8.95;;
1765;SDS011;880;52.452;8.656;2024-03-17T09:18:26;11.75;;;9.25;;
1765;SDS011;880;52.452;8.656;2024-03-17T09:23:35;9.05;;;8.07;;
1765;SDS011;880;52.452;8.656;2024-03-17T09:26:07;9.50;;;8.65;;
1765;SDS011;880;52.452;8.656;2024-03-17T09:28:34;10.85;;;8.15;;
1765;SDS011;880;52.452;8.656;2024-03-17T09:31:01;10.85;;;8.23;;
1765;SDS011;880;52.452;8.656;2024-03-17T09:33:28;8.70;;;8.00;;
1765;SDS011;880;52.452;8.656;2024-03-17T09:35:59;8.68;;;7.95;;
1765;SDS011;880;52.452;8.656;2024-03-17T09:38:34;11.10;;;8.98;;
1765;SDS011;880;52.452;8.656;2024-03-17T09:41:01;8.30;;;7.70;;
1765;SDS011;880;52.452;8.656;2024-03-17T09:43:36;9.73;;;8.82;;
1765;SDS011;880;52.452;8.656;2024-03-17T09:46:03;8.48;;;7.97;;
1765;SDS011;880;52.452;8.656;2024-03-17T09:48:30;10.75;;;8.23;;
1765;SDS011;880;52.452;8.656;2024-03-17T09:51:01;9.73;;;8.98;;
1765;SDS011;880;52.452;8.656;2024-03-17T09:53:28;9.20;;;8.48;;
1765;SDS011;880;52.452;8.656;2024-03-17T09:56:09;9.27;;;8.57;;
1765;SDS011;880;52.452;8.656;2024-03-17T09:58:37;9.43;;;8.10;;
1765;SDS011;880;52.452;8.656;2024-03-17T10:01:03;10.20;;;8.93;;
1765;SDS011;880;52.452;8.656;2024-03-17T10:03:50;9.55;;;9.02;;
1765;SDS011;880;52.452;8.656;2024-03-17T10:06:18;10.27;;;8.52;;
1765;SDS011;880;52.452;8.656;2024-03-17T10:08:49;8.63;;;7.85;;
1765;SDS011;880;52.452;8.656;2024-03-17T10:11:20;9.75;;;9.15;;
1765;SDS011;880;52.452;8.656;2024-03-17T10:14:04;11.40;;;9.80;;
1765;SDS011;880;52.452;8.656;2024-03-17T10:16:33;10.50;;;9.52;;
1765;SDS011;880;52.452;8.656;2024-03-17T10:19:09;10.35;;;9.55;;
1765;SDS011;880;52.452;8.656;2024-03-17T10:24:09;11.40;;;9.98;;
1765;SDS011;880;52.452;8.656;2024-03-17T10:26:41;10.05;;;9.23;;
1765;SDS011;880;52.452;8.656;2024-03-17T10:31:54;11.52;;;10.52;;
1765;SDS011;880;52.452;8.656;2024-03-17T10:34:27;11.60;;;10.35;;
1765;SDS011;880;52.452;8.656;2024-03-17T10:37:11;13.90;;;10.30;;
1765;SDS011;880;52.452;8.656;2024-03-17T10:39:53;10.82;;;9.95;;
1765;SDS011;880;52.452;8.656;2024-03-17T10:42:25;12.55;;;11.60;;
1765;SDS011;880;52.452;8.656;2024-03-17T10:45:01;11.55;;;10.73;;
1765;SDS011;880;52.452;8.656;2024-03-17T10:47:33;10.88;;;9.98;;
1765;SDS011;880;52.452;8.656;2024-03-17T10:49:59;12.60;;;10.73;;
1765;SDS011;880;52.452;8.656;2024-03-17T10:52:29;11.07;;;9.90;;
1765;SDS011;880;52.452;8.656;2024-03-17T10:55:01;11.65;;;10.52;;
1765;SDS011;880;52.452;8.656;2024-03-17T11:00:00;12.60;;;11.30;;
1765;SDS011;880;52.452;8.656;2024-03-17T11:02:31;11.40;;;10.20;;
1765;SDS011;880;52.452;8.656;2024-03-17T11:05:02;11.95;;;10.82;;
1765;SDS011;880;52.452;8.656;2024-03-17T11:07:55;16.10;;;11.32;;
1765;SDS011;880;52.452;8.656;2024-03-17T11:10:29;12.80;;;11.60;;
1765;SDS011;880;52.452;8.656;2024-03-17T11:13:00;10.93;;;9.80;;
1765;SDS011;880;52.452;8.656;2024-03-17T11:20:37;12.55;;;10.73;;
1765;SDS011;880;52.452;8.656;2024-03-17T11:23:08;11.82;;;10.73;;
1765;SDS011;880;52.452;8.656;2024-03-17T11:28:01;14.63;;;11.95;;
1765;SDS011;880;52.452;8.656;2024-03-17T11:39:06;12.35;;;11.32;;
1765;SDS011;880;52.452;8.656;2024-03-17T11:41:47;16.67;;;12.73;;
1765;SDS011;880;52.452;8.656;2024-03-17T11:49:18;13.07;;;11.75;;
1765;SDS011;880;52.452;8.656;2024-03-17T11:51:49;13.73;;;12.18;;
1765;SDS011;880;52.452;8.656;2024-03-17T11:54:29;12.55;;;11.45;;
1765;SDS011;880;52.452;8.656;2024-03-17T11:57:00;13.18;;;12.07;;
1765;SDS011;880;52.452;8.656;2024-03-17T11:59:26;13.57;;;12.38;;
1765;SDS011;880;52.452;8.656;2024-03-17T12:01:53;14.77;;;13.48;;
1765;SDS011;880;52.452;8.656;2024-03-17T12:04:20;13.07;;;11.98;;
1765;SDS011;880;52.452;8.656;2024-03-17T12:06:48;15.93;;;12.60;;
1765;SDS011;880;52.452;8.656;2024-03-17T12:12:01;13.88;;;12.52;;
1765;SDS011;880;52.452;8.656;2024-03-17T12:14:35;17.05;;;13.32;;
1765;SDS011;880;52.452;8.656;2024-03-17T12:17:03;14.43;;;13.00;;
1765;SDS011;880;52.452;8.656;2024-03-17T12:19:32;14.65;;;11.93;;
1765;SDS011;880;52.452;8.656;2024-03-17T12:21:59;12.70;;;11.38;;
1765;SDS011;880;52.452;8.656;2024-03-17T12:24:27;13.55;;;11.90;;
1765;SDS011;880;52.452;8.656;2024-03-17T12:26:59;15.13;;;13.52;;
1765;SDS011;880;52.452;8.656;2024-03-17T12:32:13;16.63;;;12.35;;
1765;SDS011;880;52.452;8.656;2024-03-17T12:34:46;18.20;;;13.45;;
1765;SDS011;880;52.452;8.656;2024-03-17T12:37:17;14.48;;;13.18;;
1765;SDS011;880;52.452;8.656;2024-03-17T12:39:44;13.57;;;12.38;;
1765;SDS011;880;52.452;8.656;2024-03-17T12:42:11;14.70;;;12.50;;
1765;SDS011;880;52.452;8.656;2024-03-17T12:44:50;12.65;;;11.45;;
1765;SDS011;880;52.452;8.656;2024-03-17T12:47:24;13.77;;;11.73;;
1765;SDS011;880;52.452;8.656;2024-03-17T12:52:29;14.25;;;12.88;;
1765;SDS011;880;52.452;8.656;2024-03-17T12:58:13;14.10;;;12.60;;
1765;SDS011;880;52.452;8.656;2024-03-17T13:01:02;14.05;;;12.57;;
1765;SDS011;880;52.452;8.656;2024-03-17T13:03:31;13.38;;;12.18;;
1765;SDS011;880;52.452;8.656;2024-03-17T13:05:59;13.60;;;12.38;;
1765;SDS011;880;52.452;8.656;2024-03-17T13:08:28;13.95;;;12.85;;
1765;SDS011;880;52.452;8.656;2024-03-17T13:10:54;13.73;;;12.73;;
1765;SDS011;880;52.452;8.656;2024-03-17T13:13:20;13.15;;;11.95;;
1765;SDS011;880;52.452;8.656;2024-03-17T13:15:46;12.13;;;11.32;;
1765;SDS011;880;52.452;8.656;2024-03-17T13:18:19;13.00;;;11.90;;
1765;SDS011;880;52.452;8.656;2024-03-17T13:20:46;13.32;;;12.23;;
1765;SDS011;880;52.452;8.656;2024-03-17T13:23:15;14.20;;;13.07;;
1765;SDS011;880;52.452;8.656;2024-03-17T13:25:41;13.18;;;12.07;;
1765;SDS011;880;52.452;8.656;2024-03-17T13:28:09;14.63;;;13.35;;
1765;SDS011;880;52.452;8.656;2024-03-17T13:30:35;14.50;;;13.20;;
1765;SDS011;880;52.452;8.656;2024-03-17T13:38:07;14.68;;;13.27;;
1765;SDS011;880;52.452;8.656;2024-03-17T13:40:36;14.43;;;13.13;;
1765;SDS011;880;52.452;8.656;2024-03-17T13:43:04;14.05;;;12.85;;
1765;SDS011;880;52.452;8.656;2024-03-17T13:45:40;15.05;;;13.82;;
1765;SDS011;880;52.452;8.656;2024-03-17T13:48:09;13.60;;;12.50;;
1765;SDS011;880;52.452;8.656;2024-03-17T13:50:38;14.38;;;12.93;;
1765;SDS011;880;52.452;8.656;2024-03-17T13:53:07;15.30;;;13.77;;
1765;SDS011;880;52.452;8.656;2024-03-17T13:55:33;14.73;;;13.45;;
1765;SDS011;880;52.452;8.656;2024-03-17T13:58:00;14.20;;;13.23;;
1765;SDS011;880;52.452;8.656;2024-03-17T14:00:27;14.68;;;13.13;;
1765;SDS011;880;52.452;8.656;2024-03-17T14:05:23;14.32;;;13.05;;
1765;SDS011;880;52.452;8.656;2024-03-17T14:07:53;13.40;;;12.10;;
1765;SDS011;880;52.452;8.656;2024-03-17T14:10:21;12.98;;;12.00;;
1765;SDS011;880;52.452;8.656;2024-03-17T14:12:50;14.05;;;12.80;;
1765;SDS011;880;52.452;8.656;2024-03-17T14:15:16;14.07;;;12.77;;
1765;SDS011;880;52.452;8.656;2024-03-17T14:17:43;14.65;;;13.50;;
1765;SDS011;880;52.452;8.656;2024-03-17T14:20:11;14.05;;;12.88;;
1765;SDS011;880;52.452;8.656;2024-03-17T14:22:40;16.33;;;14.73;;
1765;SDS011;880;52.452;8.656;2024-03-17T14:25:07;14.50;;;13.07;;
1765;SDS011;880;52.452;8.656;2024-03-17T14:27:36;15.32;;;13.70;;
1765;SDS011;880;52.452;8.656;2024-03-17T14:30:03;14.70;;;13.20;;
1765;SDS011;880;52.452;8.656;2024-03-17T14:32:30;15.15;;;13.57;;
1765;SDS011;880;52.452;8.656;2024-03-17T14:34:56;13.57;;;12.43;;
1765;SDS011;880;52.452;8.656;2024-03-17T14:37:22;13.48;;;12.15;;
1765;SDS011;880;52.452;8.656;2024-03-17T14:39:49;13.60;;;12.48;;
1765;SDS011;880;52.452;8.656;2024-03-17T14:42:16;14.75;;;13.35;;
1765;SDS011;880;52.452;8.656;2024-03-17T14:44:42;13.85;;;12.43;;
1765;SDS011;880;52.452;8.656;2024-03-17T14:47:08;15.05;;;12.43;;
1765;SDS011;880;52.452;8.656;2024-03-17T14:49:36;14.93;;;13.57;;
1765;SDS011;880;52.452;8.656;2024-03-17T14:52:02;14.75;;;13.20;;
1765;SDS011;880;52.452;8.656;2024-03-17T14:54:31;13.55;;;12.13;;
1765;SDS011;880;52.452;8.656;2024-03-17T14:56:57;13.70;;;12.43;;
1765;SDS011;880;52.452;8.656;2024-03-17T14:59:23;15.07;;;13.65;;
1765;SDS011;880;52.452;8.656;2024-03-17T15:01:49;13.00;;;11.73;;
1765;SDS011;880;52.452;8.656;2024-03-17T15:04:15;15.43;;;12.23;;
1765;SDS011;880;52.452;8.656;2024-03-17T15:06:43;14.55;;;13.07;;
1765;SDS011;880;52.452;8.656;2024-03-17T15:09:10;15.65;;;13.52;;
1765;SDS011;880;52.452;8.656;2024-03-17T15:11:44;14.10;;;12.80;;
1765;SDS011;880;52.452;8.656;2024-03-17T15:14:11;14.20;;;12.90;;
1765;SDS011;880;52.452;8.656;2024-03-17T15:16:38;14.18;;;12.85;;
1765;SDS011;880;52.452;8.656;2024-03-17T15:19:04;15.85;;;14.15;;
1765;SDS011;880;52.452;8.656;2024-03-17T15:21:32;12.77;;;11.73;;
1765;SDS011;880;52.452;8.656;2024-03-17T15:23:58;11.40;;;10.43;;
1765;SDS011;880;52.452;8.656;2024-03-17T15:26:28;12.65;;;11.52;;
1765;SDS011;880;52.452;8.656;2024-03-17T15:28:54;13.13;;;11.63;;
1765;SDS011;880;52.452;8.656;2024-03-17T15:31:29;13.40;;;12.07;;
1765;SDS011;880;52.452;8.656;2024-03-17T15:33:58;13.88;;;11.93;;
1765;SDS011;880;52.452;8.656;2024-03-17T15:36:24;12.25;;;11.15;;
1765;SDS011;880;52.452;8.656;2024-03-17T15:38:50;12.43;;;11.23;;
1765;SDS011;880;52.452;8.656;2024-03-17T15:41:16;12.90;;;11.32;;
1765;SDS011;880;52.452;8.656;2024-03-17T15:43:42;12.68;;;11.35;;
1765;SDS011;880;52.452;8.656;2024-03-17T15:46:17;12.65;;;11.38;;
1765;SDS011;880;52.452;8.656;2024-03-17T15:48:45;11.35;;;10.25;;
1765;SDS011;880;52.452;8.656;2024-03-17T15:51:11;11.02;;;10.13;;
1765;SDS011;880;52.452;8.656;2024-03-17T15:53:38;11.38;;;10.27;;
1765;SDS011;880;52.452;8.656;2024-03-17T15:56:04;12.65;;;11.45;;
1765;SDS011;880;52.452;8.656;2024-03-17T15:58:31;12.48;;;11.38;;
1765;SDS011;880;52.452;8.656;2024-03-17T16:00:58;13.20;;;11.98;;
1765;SDS011;880;52.452;8.656;2024-03-17T16:03:31;11.02;;;10.05;;
1765;SDS011;880;52.452;8.656;2024-03-17T16:06:04;12.43;;;10.93;;
1765;SDS011;880;52.452;8.656;2024-03-17T16:08:43;12.32;;;11.23;;
1765;SDS011;880;52.452;8.656;2024-03-17T16:11:11;12.68;;;11.30;;
1765;SDS011;880;52.452;8.656;2024-03-17T16:13:45;11.30;;;10.50;;
1765;SDS011;880;52.452;8.656;2024-03-17T16:16:16;13.05;;;11.68;;
1765;SDS011;880;52.452;8.656;2024-03-17T16:18:43;13.10;;;11.73;;